createdAt,value
2023-02-24T00:02:00.386Z,20.17
2023-02-24T00:04:30.232Z,21.67
2023-02-24T00:06:57.371Z,19.97
2023-02-24T00:09:26.609Z,17.40
2023-02-24T00:12:05.592Z,16.37
2023-02-24T00:14:38.126Z,12.48
2023-02-24T00:17:08.301Z,12.43
2023-02-24T00:19:36.217Z,14.95
2023-02-24T00:22:05.396Z,23.00
2023-02-24T00:24:32.778Z,16.23
2023-02-24T00:27:01.729Z,20.65
2023-02-24T00:29:30.513Z,17.10
2023-02-24T00:32:03.833Z,18.15
2023-02-24T00:34:33.928Z,19.03
2023-02-24T00:37:01.530Z,19.47
2023-02-24T00:39:35.255Z,23.23
2023-02-24T00:42:05.058Z,23.57
2023-02-24T00:44:46.135Z,27.30
2023-02-24T00:47:16.408Z,21.77
2023-02-24T00:49:44.749Z,19.23
2023-02-24T00:52:14.238Z,18.40
2023-02-24T00:54:42.520Z,19.43
2023-02-24T00:57:09.982Z,20.83
2023-02-24T00:59:38.272Z,21.77
2023-02-24T01:02:07.333Z,24.13
2023-02-24T01:04:34.905Z,21.00
2023-02-24T01:07:02.125Z,22.02
2023-02-24T01:09:31.377Z,28.35
2023-02-24T01:12:22.316Z,22.50
2023-02-24T01:14:51.695Z,16.47
2023-02-24T01:17:20.539Z,30.37
2023-02-24T01:19:49.550Z,23.90
2023-02-24T01:22:18.972Z,27.13
2023-02-24T01:24:46.329Z,20.03
2023-02-24T01:27:14.736Z,26.30
2023-02-24T01:29:41.710Z,24.35
2023-02-24T01:32:13.682Z,24.93
2023-02-24T01:34:42.576Z,22.95
2023-02-24T01:37:10.219Z,22.65
2023-02-24T01:39:37.445Z,23.45
2023-02-24T01:42:06.531Z,24.50
2023-02-24T01:44:33.423Z,30.17
2023-02-24T01:47:04.105Z,25.23
2023-02-24T01:49:39.052Z,29.77
2023-02-24T01:52:14.745Z,28.95
2023-02-24T01:54:52.127Z,25.42
2023-02-24T01:57:23.829Z,25.80
2023-02-24T01:59:54.107Z,32.42
2023-02-24T02:02:23.440Z,29.92
2023-02-24T02:04:57.400Z,24.67
2023-02-24T02:07:26.939Z,28.95
2023-02-24T02:09:56.192Z,33.72
2023-02-24T02:12:24.394Z,25.80
2023-02-24T02:14:54.935Z,28.92
2023-02-24T02:17:21.873Z,29.08
2023-02-24T02:19:58.085Z,37.57
2023-02-24T02:22:46.146Z,34.17
2023-02-24T02:25:19.079Z,33.13
2023-02-24T02:28:04.062Z,30.25
2023-02-24T02:30:32.175Z,35.53
2023-02-24T02:33:21.609Z,31.30
2023-02-24T02:36:17.421Z,36.17
2023-02-24T02:38:59.351Z,35.22
2023-02-24T02:41:48.556Z,33.88
2023-02-24T02:44:59.936Z,35.17
2023-02-24T02:47:35.072Z,31.83
2023-02-24T02:50:09.236Z,34.53
2023-02-24T02:52:43.998Z,38.00
2023-02-24T02:55:18.976Z,36.75
2023-02-24T02:57:49.389Z,33.47
2023-02-24T03:00:29.368Z,34.70
2023-02-24T03:03:06.324Z,39.30
2023-02-24T03:05:49.674Z,34.40
2023-02-24T03:08:23.204Z,43.47
2023-02-24T03:10:52.338Z,40.90
2023-02-24T03:13:25.862Z,35.43
2023-02-24T03:15:53.895Z,31.67
2023-02-24T03:18:32.303Z,41.03
2023-02-24T03:21:45.623Z,37.87
2023-02-24T03:24:15.550Z,31.70
2023-02-24T03:26:50.228Z,32.42
2023-02-24T03:29:33.468Z,36.70
2023-02-24T03:32:22.064Z,34.20
2023-02-24T03:34:59.508Z,33.77
2023-02-24T03:37:30.002Z,33.58
2023-02-24T03:40:14.757Z,37.00
2023-02-24T03:42:46.212Z,32.03
2023-02-24T03:45:13.663Z,36.73
2023-02-24T03:47:41.687Z,36.08
2023-02-24T03:50:15.480Z,28.95
2023-02-24T03:53:18.104Z,35.97
2023-02-24T03:56:01.040Z,31.57
2023-02-24T03:58:46.243Z,33.63
2023-02-24T04:01:25.559Z,42.13
2023-02-24T04:03:58.311Z,36.03
2023-02-24T04:06:56.229Z,38.20
2023-02-24T04:10:09.551Z,35.20
2023-02-24T04:12:47.198Z,39.80
2023-02-24T04:15:29.733Z,36.60
2023-02-24T04:18:03.309Z,42.13
2023-02-24T04:20:34.290Z,36.40
2023-02-24T04:23:08.973Z,32.07
2023-02-24T04:25:37.038Z,38.53
2023-02-24T04:28:08.117Z,35.20
2023-02-24T04:30:39.149Z,36.87
2023-02-24T04:33:06.264Z,33.87
2023-02-24T04:35:34.216Z,42.07
2023-02-24T04:38:01.241Z,37.87
2023-02-24T04:40:28.192Z,34.87
2023-02-24T04:42:55.355Z,39.50
2023-02-24T04:45:30.733Z,42.87
2023-02-24T04:48:02.338Z,40.37
2023-02-24T04:50:36.915Z,37.87
2023-02-24T04:53:10.797Z,44.20
2023-02-24T04:55:40.593Z,43.30
2023-02-24T04:58:11.946Z,37.03
2023-02-24T05:00:41.667Z,43.73
2023-02-24T05:03:11.657Z,48.50
2023-02-24T05:05:38.735Z,39.70
2023-02-24T05:08:07.223Z,41.10
2023-02-24T05:10:38.740Z,40.67
2023-02-24T05:13:09.439Z,42.27
2023-02-24T05:15:40.774Z,51.63
2023-02-24T05:18:11.233Z,56.95
2023-02-24T05:21:00.809Z,44.30
2023-02-24T05:23:39.362Z,46.40
2023-02-24T05:26:10.660Z,41.53
2023-02-24T05:28:40.833Z,41.93
2023-02-24T05:31:11.951Z,44.30
2023-02-24T05:33:39.584Z,38.83
2023-02-24T05:36:08.856Z,42.00
2023-02-24T05:38:38.332Z,42.00
2023-02-24T05:41:18.677Z,45.83
2023-02-24T05:43:48.314Z,40.83
2023-02-24T05:46:16.570Z,41.70
2023-02-24T05:48:44.115Z,42.67
2023-02-24T05:51:12.504Z,42.57
2023-02-24T05:53:43.305Z,42.23
2023-02-24T05:56:11.002Z,48.97
2023-02-24T05:58:45.048Z,37.67
2023-02-24T06:01:16.516Z,56.80
2023-02-24T06:03:48.160Z,40.40
2023-02-24T06:06:16.781Z,38.37
2023-02-24T06:08:50.768Z,31.87
2023-02-24T06:11:19.912Z,40.70
2023-02-24T06:13:50.547Z,39.00
2023-02-24T06:16:18.925Z,30.77
2023-02-24T06:18:50.154Z,33.10
2023-02-24T06:21:17.374Z,34.80
2023-02-24T06:23:45.520Z,36.57
2023-02-24T06:26:19.604Z,39.50
2023-02-24T06:28:48.106Z,40.13
2023-02-24T06:31:15.232Z,41.67
2023-02-24T06:33:42.506Z,34.00
2023-02-24T06:36:09.702Z,33.77
2023-02-24T06:38:37.611Z,36.87
2023-02-24T06:41:10.970Z,40.13
2023-02-24T06:43:43.434Z,40.50
2023-02-24T06:46:12.982Z,38.00
2023-02-24T06:48:40.144Z,34.37
2023-02-24T06:51:19.928Z,37.70
2023-02-24T06:53:47.051Z,48.37
2023-02-24T06:56:18.182Z,44.07
2023-02-24T06:58:47.281Z,39.77
2023-02-24T07:01:25.912Z,37.33
2023-02-24T07:04:14.240Z,39.27
2023-02-24T07:06:43.070Z,39.13
2023-02-24T07:09:13.189Z,44.77
2023-02-24T07:11:42.621Z,40.30
2023-02-24T07:14:11.474Z,54.20
2023-02-24T07:16:45.810Z,47.57
2023-02-24T07:19:15.601Z,54.43
2023-02-24T07:21:46.791Z,53.40
2023-02-24T07:24:24.785Z,52.37
2023-02-24T07:27:00.749Z,44.17
2023-02-24T07:29:29.914Z,43.40
2023-02-24T07:32:01.793Z,42.43
2023-02-24T07:34:29.508Z,43.83
2023-02-24T07:36:57.567Z,45.97
2023-02-24T07:39:25.691Z,48.77
2023-02-24T07:41:57.283Z,42.53
2023-02-24T07:44:24.598Z,49.30
2023-02-24T07:46:52.057Z,51.03
2023-02-24T07:49:26.057Z,46.50
2023-02-24T07:51:57.820Z,49.17
2023-02-24T07:54:30.059Z,48.47
2023-02-24T07:56:59.483Z,47.67
2023-02-24T07:59:34.082Z,49.97
2023-02-24T08:02:04.973Z,47.80
2023-02-24T08:04:39.746Z,49.08
2023-02-24T08:07:14.396Z,50.20
2023-02-24T08:09:41.705Z,42.10
2023-02-24T08:12:08.718Z,51.27
2023-02-24T08:14:44.511Z,57.77
2023-02-24T08:17:16.639Z,49.43
2023-02-24T08:19:43.508Z,49.00
2023-02-24T08:22:19.827Z,46.97
2023-02-24T08:25:00.747Z,42.73
2023-02-24T08:27:32.541Z,51.77
2023-02-24T08:30:04.015Z,48.60
2023-02-24T08:32:43.545Z,46.70
2023-02-24T08:35:15.570Z,42.47
2023-02-24T08:37:47.128Z,51.22
2023-02-24T08:40:33.028Z,44.25
2023-02-24T08:43:24.496Z,47.25
2023-02-24T08:46:13.385Z,45.58
2023-02-24T08:48:42.597Z,52.70
2023-02-24T08:51:28.742Z,46.22
2023-02-24T08:54:15.646Z,45.28
2023-02-24T08:56:56.175Z,42.38
2023-02-24T08:59:50.029Z,38.08
2023-02-24T09:02:24.603Z,41.40
2023-02-24T09:04:56.914Z,42.83
2023-02-24T09:07:30.301Z,43.38
2023-02-24T09:10:00.312Z,43.55
2023-02-24T09:12:29.512Z,41.83
2023-02-24T09:15:07.657Z,43.90
2023-02-24T09:17:41.001Z,50.47
2023-02-24T09:20:27.661Z,43.53
2023-02-24T09:23:07.617Z,47.30
2023-02-24T09:25:44.978Z,49.07
2023-02-24T09:28:17.755Z,48.40
2023-02-24T09:30:53.487Z,39.80
2023-02-24T09:33:24.207Z,42.40
2023-02-24T09:35:52.967Z,43.15
2023-02-24T09:38:46.726Z,39.15
2023-02-24T09:41:46.835Z,41.45
2023-02-24T09:44:19.796Z,52.22
2023-02-24T09:47:37.739Z,49.13
2023-02-24T09:50:40.383Z,51.08
2023-02-24T09:53:17.561Z,41.13
2023-02-24T09:56:04.036Z,48.67
2023-02-24T09:58:51.096Z,42.97
2023-02-24T10:01:42.955Z,48.60
2023-02-24T10:04:49.400Z,42.35
2023-02-24T10:07:22.853Z,44.85
2023-02-24T10:09:55.875Z,43.35
2023-02-24T10:12:40.218Z,45.72
2023-02-24T10:15:21.096Z,40.50
2023-02-24T10:18:00.047Z,41.22
2023-02-24T10:20:44.724Z,46.80
2023-02-24T10:23:29.779Z,44.13
2023-02-24T10:26:07.356Z,46.83
2023-02-24T10:28:59.517Z,45.42
2023-02-24T10:31:46.132Z,46.80
2023-02-24T10:34:27.446Z,50.60
2023-02-24T10:36:57.618Z,51.17
2023-02-24T10:39:26.223Z,45.88
2023-02-24T10:41:59.157Z,45.38
2023-02-24T10:44:36.558Z,38.78
2023-02-24T10:47:11.890Z,45.58
2023-02-24T10:49:59.483Z,46.45
2023-02-24T10:52:56.893Z,40.80
2023-02-24T10:55:44.039Z,41.55
2023-02-24T10:58:28.457Z,35.90
2023-02-24T11:01:07.675Z,37.50
2023-02-24T11:03:46.191Z,39.70
2023-02-24T11:06:40.598Z,38.67
2023-02-24T11:09:28.324Z,38.42
2023-02-24T11:12:24.345Z,38.28
2023-02-24T11:15:13.529Z,41.90
2023-02-24T11:17:58.905Z,33.83
2023-02-24T11:20:49.305Z,35.13
2023-02-24T11:23:24.810Z,35.63
2023-02-24T11:25:58.380Z,37.42
2023-02-24T11:28:47.744Z,41.22
2023-02-24T11:31:39.402Z,34.28
2023-02-24T11:34:36.603Z,38.25
2023-02-24T11:37:32.359Z,32.90
2023-02-24T11:40:11.774Z,31.20
2023-02-24T11:42:59.006Z,36.45
2023-02-24T11:45:35.645Z,32.10
2023-02-24T11:48:27.548Z,57.55
2023-02-24T11:51:15.416Z,33.40
2023-02-24T11:54:05.925Z,30.65
2023-02-24T11:56:50.318Z,35.70
2023-02-24T11:59:17.848Z,33.97
2023-02-24T12:02:21.568Z,33.47
2023-02-24T12:04:54.296Z,38.33
2023-02-24T12:07:39.137Z,37.10
2023-02-24T12:10:29.095Z,33.25
2023-02-24T12:13:11.224Z,35.95
2023-02-24T12:15:56.815Z,32.47
2023-02-24T12:18:30.680Z,32.47
2023-02-24T12:21:06.863Z,36.40
2023-02-24T12:23:43.888Z,35.63
2023-02-24T12:26:39.897Z,35.03
2023-02-24T12:29:24.869Z,34.92
2023-02-24T12:32:30.545Z,36.55
2023-02-24T12:35:11.907Z,31.73
2023-02-24T12:37:51.223Z,33.45
2023-02-24T12:40:47.045Z,30.42
2023-02-24T12:43:35.663Z,32.05
2023-02-24T12:46:14.960Z,34.45
2023-02-24T12:49:04.746Z,31.58
2023-02-24T12:51:52.312Z,27.55
2023-02-24T12:54:51.358Z,35.80
2023-02-24T12:57:43.327Z,137.32
2023-02-24T13:00:18.300Z,33.03
2023-02-24T13:03:00.854Z,37.40
2023-02-24T13:05:37.602Z,31.80
2023-02-24T13:08:40.100Z,34.17
2023-02-24T13:11:42.638Z,35.15
2023-02-24T13:14:25.116Z,33.45
2023-02-24T13:17:02.734Z,36.88
2023-02-24T13:19:30.836Z,34.33
2023-02-24T13:22:07.338Z,39.25
2023-02-24T13:24:35.013Z,39.83
2023-02-24T13:27:15.044Z,38.60
2023-02-24T13:29:50.722Z,42.97
2023-02-24T13:32:39.306Z,35.47
2023-02-24T13:35:26.633Z,53.67
2023-02-24T13:37:54.509Z,35.25
2023-02-24T13:40:27.309Z,41.55
2023-02-24T13:43:00.050Z,60.53
2023-02-24T13:45:39.935Z,42.88
2023-02-24T13:48:37.147Z,35.15
2023-02-24T13:51:18.753Z,30.90
2023-02-24T13:54:07.474Z,55.85
2023-02-24T13:56:55.588Z,100.40
2023-02-24T13:59:43.793Z,30.48
2023-02-24T14:02:17.618Z,31.38
2023-02-24T14:04:56.798Z,32.50
2023-02-24T14:07:29.650Z,31.00
2023-02-24T14:10:31.481Z,32.97
2023-02-24T14:13:15.005Z,27.77
2023-02-24T14:15:44.892Z,28.25
2023-02-24T14:18:25.361Z,28.30
2023-02-24T14:20:53.674Z,34.85
2023-02-24T14:23:25.332Z,63.70
2023-02-24T14:26:00.639Z,32.78
2023-02-24T14:28:37.009Z,109.43
2023-02-24T14:31:15.785Z,59.85
2023-02-24T14:33:45.038Z,44.35
2023-02-24T14:36:23.890Z,25.60
2023-02-24T14:39:22.101Z,31.67
2023-02-24T14:41:51.319Z,28.23
2023-02-24T14:44:30.110Z,28.92
2023-02-24T14:46:59.504Z,34.42
2023-02-24T14:49:31.950Z,30.20
2023-02-24T14:52:25.669Z,29.63
2023-02-24T14:55:17.653Z,25.17
2023-02-24T14:58:06.956Z,31.40
2023-02-24T15:00:37.826Z,30.48
2023-02-24T15:03:12.688Z,31.92
2023-02-24T15:05:44.631Z,31.42
2023-02-24T15:08:25.678Z,25.10
2023-02-24T15:10:53.116Z,28.15
2023-02-24T15:13:28.421Z,26.80
2023-02-24T15:15:57.106Z,32.70
2023-02-24T15:18:29.252Z,24.95
2023-02-24T15:21:18.519Z,29.17
2023-02-24T15:23:47.755Z,23.27
2023-02-24T15:26:29.677Z,30.35
2023-02-24T15:29:02.079Z,34.63
2023-02-24T15:31:29.799Z,25.10
2023-02-24T15:34:02.334Z,29.85
2023-02-24T15:36:33.721Z,37.03
2023-02-24T15:39:05.573Z,37.05
2023-02-24T15:41:43.054Z,27.98
2023-02-24T15:44:30.436Z,35.40
2023-02-24T15:46:59.502Z,30.88
2023-02-24T15:49:26.777Z,37.78
2023-02-24T15:51:54.775Z,30.63
2023-02-24T15:54:35.241Z,27.60
2023-02-24T15:57:03.220Z,25.73
2023-02-24T15:59:30.284Z,43.90
2023-02-24T16:01:57.540Z,30.90
2023-02-24T16:04:26.953Z,25.17
2023-02-24T16:06:56.585Z,37.20
2023-02-24T16:09:36.791Z,35.22
2023-02-24T16:12:10.974Z,24.97
2023-02-24T16:14:38.829Z,27.53
2023-02-24T16:17:10.854Z,32.20
2023-02-24T16:19:38.051Z,22.73
2023-02-24T16:22:05.064Z,20.70
2023-02-24T16:24:32.213Z,24.00
2023-02-24T16:26:59.151Z,27.05
2023-02-24T16:29:26.469Z,26.65
2023-02-24T16:31:53.718Z,32.45
2023-02-24T16:34:20.904Z,29.03
2023-02-24T16:36:48.371Z,25.73
2023-02-24T16:39:15.310Z,35.40
2023-02-24T16:41:42.266Z,48.60
2023-02-24T16:44:10.670Z,31.58
2023-02-24T16:46:41.271Z,31.25
2023-02-24T16:49:13.054Z,28.13
2023-02-24T16:51:40.660Z,25.63
2023-02-24T16:54:08.440Z,21.13
2023-02-24T16:56:35.488Z,26.17
2023-02-24T16:59:02.458Z,30.37
2023-02-24T17:01:29.495Z,27.97
2023-02-24T17:03:56.757Z,29.73
2023-02-24T17:06:25.082Z,26.87
2023-02-24T17:08:52.577Z,23.58
2023-02-24T17:11:21.891Z,26.97
2023-02-24T17:13:48.828Z,29.87
2023-02-24T17:16:15.839Z,31.07
2023-02-24T17:18:42.813Z,21.47
2023-02-24T17:21:14.653Z,26.97
2023-02-24T17:23:42.698Z,29.33
2023-02-24T17:26:13.939Z,24.27
2023-02-24T17:28:41.119Z,27.27
2023-02-24T17:31:08.148Z,22.10
2023-02-24T17:33:35.209Z,25.40
2023-02-24T17:36:02.257Z,23.73
2023-02-24T17:38:31.775Z,27.73
2023-02-24T17:40:58.994Z,29.00
2023-02-24T17:43:26.094Z,26.80
2023-02-24T17:45:53.875Z,30.20
2023-02-24T17:48:21.783Z,26.13
2023-02-24T17:50:49.328Z,29.20
2023-02-24T17:53:16.443Z,32.60
2023-02-24T17:55:59.960Z,30.53
2023-02-24T17:58:29.085Z,26.93
2023-02-24T18:00:56.306Z,27.97
2023-02-24T18:03:23.522Z,28.90
2023-02-24T18:05:59.260Z,26.50
2023-02-24T18:08:26.236Z,34.07
2023-02-24T18:10:53.346Z,34.80
2023-02-24T18:13:20.292Z,28.50
2023-02-24T18:15:47.246Z,38.67
2023-02-24T18:18:14.278Z,31.77
2023-02-24T18:20:45.522Z,24.00
2023-02-24T18:23:13.014Z,29.17
2023-02-24T18:25:40.045Z,33.70
2023-02-24T18:28:07.311Z,33.03
2023-02-24T18:30:34.917Z,32.37
2023-02-24T18:33:04.488Z,33.93
2023-02-24T18:35:31.572Z,31.73
2023-02-24T18:37:58.537Z,32.00
2023-02-24T18:40:29.696Z,28.23
2023-02-24T18:42:56.883Z,33.03
2023-02-24T18:45:24.171Z,31.17
2023-02-24T18:47:52.947Z,28.93
2023-02-24T18:50:20.759Z,31.10
2023-02-24T18:52:47.810Z,30.20
2023-02-24T18:55:14.696Z,36.10
2023-02-24T18:57:41.762Z,26.93
2023-02-24T19:00:13.219Z,31.77
2023-02-24T19:02:41.063Z,27.97
2023-02-24T19:05:08.716Z,34.67
2023-02-24T19:07:35.732Z,27.80
2023-02-24T19:10:02.686Z,33.70
2023-02-24T19:12:29.695Z,32.60
2023-02-24T19:14:56.804Z,30.70
2023-02-24T19:17:23.803Z,26.10
2023-02-24T19:19:50.774Z,22.63
2023-02-24T19:22:17.772Z,19.07
2023-02-24T19:24:44.731Z,17.67
2023-02-24T19:27:11.743Z,15.17
2023-02-24T19:29:38.693Z,17.53
2023-02-24T19:32:05.903Z,12.63
2023-02-24T19:34:32.959Z,15.10
2023-02-24T19:36:59.958Z,13.40
2023-02-24T19:39:26.888Z,12.57
2023-02-24T19:41:54.881Z,13.30
2023-02-24T19:44:21.833Z,14.53
2023-02-24T19:46:48.898Z,11.80
2023-02-24T19:49:15.932Z,13.10
2023-02-24T19:51:43.686Z,14.87
2023-02-24T19:54:12.495Z,14.33
2023-02-24T19:56:39.619Z,12.43
2023-02-24T19:59:11.493Z,16.67
2023-02-24T20:01:38.500Z,12.27
2023-02-24T20:04:05.952Z,17.37
2023-02-24T20:06:36.228Z,12.20
2023-02-24T20:09:07.186Z,13.53
2023-02-24T20:11:40.181Z,12.53
2023-02-24T20:14:08.841Z,12.23
2023-02-24T20:16:38.013Z,10.13
2023-02-24T20:19:07.112Z,10.97
2023-02-24T20:21:34.315Z,10.87
2023-02-24T20:24:05.932Z,9.33
2023-02-24T20:26:33.320Z,15.20
2023-02-24T20:29:00.971Z,9.20
2023-02-24T20:31:28.698Z,12.07
2023-02-24T20:33:56.569Z,16.27
2023-02-24T20:36:26.450Z,15.67
2023-02-24T20:38:54.349Z,13.87
2023-02-24T20:41:22.336Z,13.83
2023-02-24T20:43:49.784Z,9.93
2023-02-24T20:46:25.214Z,10.40
2023-02-24T20:48:56.092Z,10.73
2023-02-24T20:51:23.824Z,11.33
2023-02-24T20:53:57.833Z,11.33
2023-02-24T20:56:29.437Z,8.07
2023-02-24T20:59:17.368Z,8.23
2023-02-24T21:01:47.282Z,5.17
2023-02-24T21:04:15.411Z,5.83
2023-02-24T21:06:43.126Z,5.13
2023-02-24T21:09:12.074Z,5.23
2023-02-24T21:11:39.389Z,4.17
2023-02-24T21:14:07.217Z,4.27
2023-02-24T21:16:37.207Z,9.33
2023-02-24T21:19:04.303Z,4.43
2023-02-24T21:21:31.238Z,3.73
2023-02-24T21:23:58.188Z,3.20
2023-02-24T21:26:27.096Z,4.70
2023-02-24T21:28:57.608Z,4.90
2023-02-24T21:31:26.191Z,2.93
2023-02-24T21:33:54.522Z,3.17
2023-02-24T21:36:25.749Z,3.13
2023-02-24T21:38:53.697Z,3.03
2023-02-24T21:41:21.418Z,2.70
2023-02-24T21:43:52.466Z,3.30
2023-02-24T21:46:19.451Z,3.27
2023-02-24T21:48:46.854Z,3.47
2023-02-24T21:51:13.983Z,5.63
2023-02-24T21:53:43.827Z,3.20
2023-02-24T21:56:21.801Z,2.77
2023-02-24T21:59:00.394Z,2.80
2023-02-24T22:01:30.582Z,5.53
2023-02-24T22:04:00.032Z,4.10
2023-02-24T22:06:31.271Z,4.00
2023-02-24T22:08:59.327Z,7.50
2023-02-24T22:11:26.399Z,6.07
2023-02-24T22:13:53.365Z,8.17
2023-02-24T22:16:22.897Z,15.23
2023-02-24T22:18:52.170Z,5.93
2023-02-24T22:21:22.129Z,5.27
2023-02-24T22:23:52.303Z,10.00
2023-02-24T22:26:22.978Z,3.87
2023-02-24T22:28:50.168Z,8.20
2023-02-24T22:31:20.620Z,5.57
2023-02-24T22:33:48.936Z,8.80
2023-02-24T22:36:19.296Z,6.03
2023-02-24T22:38:46.598Z,8.30
2023-02-24T22:41:21.615Z,8.43
2023-02-24T22:43:48.816Z,6.83
2023-02-24T22:46:22.209Z,6.87
2023-02-24T22:48:50.477Z,8.30
2023-02-24T22:51:18.262Z,8.77
2023-02-24T22:53:49.025Z,6.27
2023-02-24T22:56:18.698Z,5.40
2023-02-24T22:58:46.214Z,8.33
2023-02-24T23:01:19.499Z,5.53
2023-02-24T23:03:46.649Z,9.73
2023-02-24T23:06:17.232Z,9.17
2023-02-24T23:08:46.588Z,7.77
2023-02-24T23:11:18.461Z,9.07
2023-02-24T23:13:47.884Z,9.83
2023-02-24T23:16:18.676Z,9.27
2023-02-24T23:18:50.892Z,10.80
2023-02-24T23:21:26.568Z,8.07
2023-02-24T23:23:56.981Z,11.07
2023-02-24T23:26:33.409Z,10.00
2023-02-24T23:29:00.805Z,9.37
2023-02-24T23:31:28.028Z,10.23
2023-02-24T23:33:55.592Z,9.47
2023-02-24T23:36:24.053Z,10.27
2023-02-24T23:38:51.868Z,9.80
2023-02-24T23:41:18.801Z,10.63
2023-02-24T23:43:46.040Z,12.80
2023-02-24T23:46:13.730Z,10.27
2023-02-24T23:48:41.156Z,8.97
2023-02-24T23:51:14.137Z,9.17
2023-02-24T23:53:43.078Z,8.37
2023-02-24T23:56:14.484Z,11.40
2023-02-24T23:58:41.564Z,10.47
